sensor_id;sensor_type;location;lat;lon;timestamp;pressure;altitude;pressure_sealevel;temperature;humidity
31195;BME280;17819;36.316;-93.164;2022-07-01T00:00:32;114490.28;;;-146.31;26.26
31195;BME280;17819;36.316;-93.164;2022-07-01T00:02:37;114490.28;;;-146.31;27.18
31195;BME280;17819;36.316;-93.164;2022-07-01T00:04:40;114490.28;;;-146.31;26.83
31195;BME280;17819;36.316;-93.164;2022-07-01T00:07:03;114490.28;;;-146.31;26.58
31195;BME280;17819;36.316;-93.164;2022-07-01T00:09:09;114490.28;;;-146.31;26.97
31195;BME280;17819;36.316;-93.164;2022-07-01T00:11:14;114490.28;;;-146.31;26.94
31195;BME280;17819;36.316;-93.164;2022-07-01T00:13:21;114490.28;;;-146.31;27.01
31195;BME280;17819;36.316;-93.164;2022-07-01T00:15:25;114490.28;;;-146.31;26.56
31195;BME280;17819;36.316;-93.164;2022-07-01T00:17:30;114490.28;;;-146.31;26.81
31195;BME280;17819;36.316;-93.164;2022-07-01T00:19:34;114490.28;;;-146.31;26.77
31195;BME280;17819;36.316;-93.164;2022-07-01T00:21:39;114490.28;;;-146.31;26.62
31195;BME280;17819;36.316;-93.164;2022-07-01T00:23:43;114490.28;;;-146.31;26.94
31195;BME280;17819;36.316;-93.164;2022-07-01T00:25:47;114490.28;;;-146.31;27.41
31195;BME280;17819;36.316;-93.164;2022-07-01T00:27:52;114490.28;;;-146.31;27.36
31195;BME280;17819;36.316;-93.164;2022-07-01T00:29:56;114490.28;;;-146.31;27.16
31195;BME280;17819;36.316;-93.164;2022-07-01T00:32:00;114490.28;;;-146.31;27.29
31195;BME280;17819;36.316;-93.164;2022-07-01T00:34:04;114490.28;;;-146.31;27.80
31195;BME280;17819;36.316;-93.164;2022-07-01T00:36:07;114490.28;;;-146.31;27.68
31195;BME280;17819;36.316;-93.164;2022-07-01T00:38:11;114490.28;;;-146.31;28.41
31195;BME280;17819;36.316;-93.164;2022-07-01T00:40:15;114490.28;;;-146.31;28.27
31195;BME280;17819;36.316;-93.164;2022-07-01T00:42:19;114490.28;;;-146.31;28.78
31195;BME280;17819;36.316;-93.164;2022-07-01T00:44:23;114490.28;;;-146.31;28.71
31195;BME280;17819;36.316;-93.164;2022-07-01T00:46:34;114490.28;;;-146.31;29.54
31195;BME280;17819;36.316;-93.164;2022-07-01T00:48:38;114490.28;;;-146.31;30.03
31195;BME280;17819;36.316;-93.164;2022-07-01T00:50:43;114490.28;;;-146.31;31.06
31195;BME280;17819;36.316;-93.164;2022-07-01T00:52:51;114490.28;;;-146.31;31.72
31195;BME280;17819;36.316;-93.164;2022-07-01T00:54:56;114490.28;;;-146.31;32.62
31195;BME280;17819;36.316;-93.164;2022-07-01T00:57:08;114490.28;;;-146.31;33.09
31195;BME280;17819;36.316;-93.164;2022-07-01T00:59:13;114490.28;;;-146.31;34.03
31195;BME280;17819;36.316;-93.164;2022-07-01T01:01:17;114490.28;;;-146.31;34.28
31195;BME280;17819;36.316;-93.164;2022-07-01T01:03:22;114490.28;;;-146.31;35.10
31195;BME280;17819;36.316;-93.164;2022-07-01T01:05:26;114490.28;;;-146.31;35.87
31195;BME280;17819;36.316;-93.164;2022-07-01T01:07:31;114490.28;;;-146.31;36.39
31195;BME280;17819;36.316;-93.164;2022-07-01T01:09:39;114490.28;;;-146.31;36.31
31195;BME280;17819;36.316;-93.164;2022-07-01T01:11:43;114490.28;;;-146.31;36.51
31195;BME280;17819;36.316;-93.164;2022-07-01T01:13:48;114490.28;;;-146.31;37.13
31195;BME280;17819;36.316;-93.164;2022-07-01T01:15:54;114490.28;;;-146.31;37.61
31195;BME280;17819;36.316;-93.164;2022-07-01T01:17:59;114490.28;;;-146.31;37.89
31195;BME280;17819;36.316;-93.164;2022-07-01T01:20:03;114490.28;;;-146.31;38.53
31195;BME280;17819;36.316;-93.164;2022-07-01T01:22:08;114490.28;;;-146.31;39.00
31195;BME280;17819;36.316;-93.164;2022-07-01T01:24:12;114490.28;;;-146.31;39.69
31195;BME280;17819;36.316;-93.164;2022-07-01T01:26:17;114490.28;;;-146.31;40.09
31195;BME280;17819;36.316;-93.164;2022-07-01T01:28:21;114490.28;;;-146.31;40.35
31195;BME280;17819;36.316;-93.164;2022-07-01T01:30:25;114490.28;;;-146.31;40.81
31195;BME280;17819;36.316;-93.164;2022-07-01T01:32:29;114490.28;;;-146.31;42.01
31195;BME280;17819;36.316;-93.164;2022-07-01T01:34:37;114490.28;;;-146.31;42.96
31195;BME280;17819;36.316;-93.164;2022-07-01T01:36:42;114490.28;;;-146.31;43.29
31195;BME280;17819;36.316;-93.164;2022-07-01T01:38:46;114490.28;;;-146.31;43.57
31195;BME280;17819;36.316;-93.164;2022-07-01T01:40:53;114490.28;;;-146.31;44.26
31195;BME280;17819;36.316;-93.164;2022-07-01T01:42:58;114490.28;;;-146.31;42.96
31195;BME280;17819;36.316;-93.164;2022-07-01T01:45:02;114490.28;;;-146.31;43.77
31195;BME280;17819;36.316;-93.164;2022-07-01T01:47:06;114490.28;;;-146.31;43.79
31195;BME280;17819;36.316;-93.164;2022-07-01T01:49:11;114490.28;;;-146.31;44.32
31195;BME280;17819;36.316;-93.164;2022-07-01T01:51:15;114490.28;;;-146.31;44.30
31195;BME280;17819;36.316;-93.164;2022-07-01T01:53:22;114490.28;;;-146.31;45.05
31195;BME280;17819;36.316;-93.164;2022-07-01T01:55:26;114490.28;;;-146.31;45.27
31195;BME280;17819;36.316;-93.164;2022-07-01T01:57:30;114490.28;;;-146.31;45.51
31195;BME280;17819;36.316;-93.164;2022-07-01T01:59:34;114490.28;;;-146.31;46.42
31195;BME280;17819;36.316;-93.164;2022-07-01T02:01:38;114490.28;;;-146.31;46.29
31195;BME280;17819;36.316;-93.164;2022-07-01T02:03:42;114490.28;;;-146.31;46.90
31195;BME280;17819;36.316;-93.164;2022-07-01T02:05:47;114490.28;;;-146.31;47.41
31195;BME280;17819;36.316;-93.164;2022-07-01T02:07:51;114490.28;;;-146.31;48.78
31195;BME280;17819;36.316;-93.164;2022-07-01T02:09:55;114490.28;;;-146.31;47.94
31195;BME280;17819;36.316;-93.164;2022-07-01T02:11:59;114490.28;;;-146.31;49.21
31195;BME280;17819;36.316;-93.164;2022-07-01T02:14:03;114490.28;;;-146.31;49.36
31195;BME280;17819;36.316;-93.164;2022-07-01T02:16:06;114490.28;;;-146.31;49.89
31195;BME280;17819;36.316;-93.164;2022-07-01T02:18:14;114490.28;;;-146.31;50.65
31195;BME280;17819;36.316;-93.164;2022-07-01T02:20:20;114490.28;;;-146.31;51.08
31195;BME280;17819;36.316;-93.164;2022-07-01T02:22:24;114490.28;;;-146.31;51.69
31195;BME280;17819;36.316;-93.164;2022-07-01T02:24:28;114490.28;;;-146.31;52.23
31195;BME280;17819;36.316;-93.164;2022-07-01T02:26:34;114490.28;;;-146.31;52.52
31195;BME280;17819;36.316;-93.164;2022-07-01T02:28:38;114490.28;;;-146.31;52.89
31195;BME280;17819;36.316;-93.164;2022-07-01T02:30:42;114490.28;;;-146.31;52.96
31195;BME280;17819;36.316;-93.164;2022-07-01T02:32:46;114490.28;;;-146.31;53.30
31195;BME280;17819;36.316;-93.164;2022-07-01T02:34:50;114490.28;;;-146.31;54.04
31195;BME280;17819;36.316;-93.164;2022-07-01T02:36:54;114490.28;;;-146.31;54.38
31195;BME280;17819;36.316;-93.164;2022-07-01T02:38:59;114490.28;;;-146.31;54.34
31195;BME280;17819;36.316;-93.164;2022-07-01T02:41:02;114490.28;;;-146.31;54.29
31195;BME280;17819;36.316;-93.164;2022-07-01T02:43:07;114490.28;;;-146.31;54.67
31195;BME280;17819;36.316;-93.164;2022-07-01T02:45:11;114490.28;;;-146.31;55.12
31195;BME280;17819;36.316;-93.164;2022-07-01T02:47:16;114490.28;;;-146.31;55.10
31195;BME280;17819;36.316;-93.164;2022-07-01T02:49:20;114490.28;;;-146.31;55.38
31195;BME280;17819;36.316;-93.164;2022-07-01T02:51:24;114490.28;;;-146.31;55.51
31195;BME280;17819;36.316;-93.164;2022-07-01T02:53:28;114490.28;;;-146.31;55.87
31195;BME280;17819;36.316;-93.164;2022-07-01T02:55:32;114490.28;;;-146.31;56.06
31195;BME280;17819;36.316;-93.164;2022-07-01T02:57:36;114490.28;;;-146.31;56.49
31195;BME280;17819;36.316;-93.164;2022-07-01T02:59:41;114490.28;;;-146.31;57.01
31195;BME280;17819;36.316;-93.164;2022-07-01T03:01:45;114490.28;;;-146.31;57.32
31195;BME280;17819;36.316;-93.164;2022-07-01T03:03:49;114490.28;;;-146.31;57.33
31195;BME280;17819;36.316;-93.164;2022-07-01T03:05:55;114490.28;;;-146.31;57.81
31195;BME280;17819;36.316;-93.164;2022-07-01T03:07:59;114490.28;;;-146.31;58.04
31195;BME280;17819;36.316;-93.164;2022-07-01T03:10:03;114490.28;;;-146.31;58.43
31195;BME280;17819;36.316;-93.164;2022-07-01T03:12:08;114490.28;;;-146.31;58.66
31195;BME280;17819;36.316;-93.164;2022-07-01T03:14:30;114490.28;;;-146.31;59.38
31195;BME280;17819;36.316;-93.164;2022-07-01T03:16:33;114490.28;;;-146.31;59.24
31195;BME280;17819;36.316;-93.164;2022-07-01T03:18:37;114490.28;;;-146.31;59.80
31195;BME280;17819;36.316;-93.164;2022-07-01T03:20:44;114490.28;;;-146.31;59.99
31195;BME280;17819;36.316;-93.164;2022-07-01T03:22:49;114490.28;;;-146.31;59.53
31195;BME280;17819;36.316;-93.164;2022-07-01T03:24:54;114490.28;;;-146.31;59.71
31195;BME280;17819;36.316;-93.164;2022-07-01T03:26:57;114490.28;;;-146.31;60.21
31195;BME280;17819;36.316;-93.164;2022-07-01T03:29:02;114490.28;;;-146.31;60.19
31195;BME280;17819;36.316;-93.164;2022-07-01T03:31:06;114490.28;;;-146.31;60.03
31195;BME280;17819;36.316;-93.164;2022-07-01T03:33:10;114490.28;;;-146.31;59.99
31195;BME280;17819;36.316;-93.164;2022-07-01T03:35:14;114490.28;;;-146.31;60.78
31195;BME280;17819;36.316;-93.164;2022-07-01T03:37:36;114490.28;;;-146.31;61.26
31195;BME280;17819;36.316;-93.164;2022-07-01T03:39:40;114490.28;;;-146.31;61.83
31195;BME280;17819;36.316;-93.164;2022-07-01T03:41:44;114490.28;;;-146.31;61.27
31195;BME280;17819;36.316;-93.164;2022-07-01T03:43:48;114490.28;;;-146.31;61.61
31195;BME280;17819;36.316;-93.164;2022-07-01T03:45:52;114490.28;;;-146.31;61.89
31195;BME280;17819;36.316;-93.164;2022-07-01T03:47:55;114490.28;;;-146.31;62.05
31195;BME280;17819;36.316;-93.164;2022-07-01T03:50:03;114490.28;;;-146.31;62.34
31195;BME280;17819;36.316;-93.164;2022-07-01T03:52:08;114490.28;;;-146.31;63.04
31195;BME280;17819;36.316;-93.164;2022-07-01T03:54:13;114490.28;;;-146.31;62.74
31195;BME280;17819;36.316;-93.164;2022-07-01T03:56:35;114490.28;;;-146.31;63.30
31195;BME280;17819;36.316;-93.164;2022-07-01T03:58:39;114490.28;;;-146.31;63.57
31195;BME280;17819;36.316;-93.164;2022-07-01T04:00:43;114490.28;;;-146.31;64.55
31195;BME280;17819;36.316;-93.164;2022-07-01T04:02:51;114490.28;;;-146.31;64.11
31195;BME280;17819;36.316;-93.164;2022-07-01T04:04:58;114490.28;;;-146.31;64.63
31195;BME280;17819;36.316;-93.164;2022-07-01T04:07:04;114490.28;;;-146.31;64.56
31195;BME280;17819;36.316;-93.164;2022-07-01T04:09:08;114490.28;;;-146.31;64.74
31195;BME280;17819;36.316;-93.164;2022-07-01T04:11:12;114490.28;;;-146.31;65.26
31195;BME280;17819;36.316;-93.164;2022-07-01T04:13:16;114490.28;;;-146.31;65.53
31195;BME280;17819;36.316;-93.164;2022-07-01T04:15:36;114490.28;;;-146.31;66.07
31195;BME280;17819;36.316;-93.164;2022-07-01T04:17:43;114490.28;;;-146.31;66.12
31195;BME280;17819;36.316;-93.164;2022-07-01T04:19:47;114490.28;;;-146.31;66.52
31195;BME280;17819;36.316;-93.164;2022-07-01T04:21:51;114490.28;;;-146.31;67.27
31195;BME280;17819;36.316;-93.164;2022-07-01T04:24:14;114490.28;;;-146.31;67.93
31195;BME280;17819;36.316;-93.164;2022-07-01T04:26:18;114490.28;;;-146.31;68.20
31195;BME280;17819;36.316;-93.164;2022-07-01T04:28:38;114490.28;;;-146.31;68.29
31195;BME280;17819;36.316;-93.164;2022-07-01T04:30:42;114490.28;;;-146.31;68.54
31195;BME280;17819;36.316;-93.164;2022-07-01T04:32:46;114490.28;;;-146.31;68.76
31195;BME280;17819;36.316;-93.164;2022-07-01T04:34:50;114490.28;;;-146.31;69.10
31195;BME280;17819;36.316;-93.164;2022-07-01T04:36:54;114490.28;;;-146.31;69.30
31195;BME280;17819;36.316;-93.164;2022-07-01T04:38:59;114490.28;;;-146.31;69.17
31195;BME280;17819;36.316;-93.164;2022-07-01T04:41:03;114490.28;;;-146.31;69.13
31195;BME280;17819;36.316;-93.164;2022-07-01T04:43:25;114490.28;;;-146.31;70.38
31195;BME280;17819;36.316;-93.164;2022-07-01T04:45:29;114490.28;;;-146.31;70.66
31195;BME280;17819;36.316;-93.164;2022-07-01T04:47:33;114490.28;;;-146.31;71.81
31195;BME280;17819;36.316;-93.164;2022-07-01T04:49:36;114490.28;;;-146.31;71.56
31195;BME280;17819;36.316;-93.164;2022-07-01T04:51:40;114490.28;;;-146.31;71.84
31195;BME280;17819;36.316;-93.164;2022-07-01T04:53:52;114490.28;;;-146.31;72.46
31195;BME280;17819;36.316;-93.164;2022-07-01T04:55:56;114490.28;;;-146.31;72.44
31195;BME280;17819;36.316;-93.164;2022-07-01T04:58:02;114490.28;;;-146.31;72.55
31195;BME280;17819;36.316;-93.164;2022-07-01T05:00:07;114490.28;;;-146.31;73.88
31195;BME280;17819;36.316;-93.164;2022-07-01T05:02:11;114490.28;;;-146.31;74.62
31195;BME280;17819;36.316;-93.164;2022-07-01T05:04:15;114490.28;;;-146.31;75.08
31195;BME280;17819;36.316;-93.164;2022-07-01T05:06:19;114490.28;;;-146.31;75.25
31195;BME280;17819;36.316;-93.164;2022-07-01T05:08:23;114490.28;;;-146.31;75.27
31195;BME280;17819;36.316;-93.164;2022-07-01T05:10:27;114490.28;;;-146.31;75.97
31195;BME280;17819;36.316;-93.164;2022-07-01T05:12:31;114490.28;;;-146.31;76.36
31195;BME280;17819;36.316;-93.164;2022-07-01T05:14:35;114490.28;;;-146.31;76.50
31195;BME280;17819;36.316;-93.164;2022-07-01T05:16:41;114490.28;;;-146.31;76.95
31195;BME280;17819;36.316;-93.164;2022-07-01T05:18:45;114490.28;;;-146.31;77.08
31195;BME280;17819;36.316;-93.164;2022-07-01T05:21:07;114490.28;;;-146.31;77.86
31195;BME280;17819;36.316;-93.164;2022-07-01T05:23:30;114490.28;;;-146.31;78.43
31195;BME280;17819;36.316;-93.164;2022-07-01T05:25:33;114490.28;;;-146.31;78.68
31195;BME280;17819;36.316;-93.164;2022-07-01T05:27:37;114490.28;;;-146.31;79.46
31195;BME280;17819;36.316;-93.164;2022-07-01T05:29:41;114490.28;;;-146.31;79.57
31195;BME280;17819;36.316;-93.164;2022-07-01T05:31:47;114490.28;;;-146.31;80.14
31195;BME280;17819;36.316;-93.164;2022-07-01T05:33:52;114490.28;;;-146.31;80.35
31195;BME280;17819;36.316;-93.164;2022-07-01T05:35:55;114490.28;;;-146.31;80.58
31195;BME280;17819;36.316;-93.164;2022-07-01T05:37:59;114490.28;;;-146.31;80.91
31195;BME280;17819;36.316;-93.164;2022-07-01T05:40:03;114490.28;;;-146.31;81.44
31195;BME280;17819;36.316;-93.164;2022-07-01T05:42:07;114490.28;;;-146.31;82.16
31195;BME280;17819;36.316;-93.164;2022-07-01T05:44:11;114490.28;;;-146.31;82.32
31195;BME280;17819;36.316;-93.164;2022-07-01T05:46:15;114490.28;;;-146.31;82.67
31195;BME280;17819;36.316;-93.164;2022-07-01T05:48:18;114490.28;;;-146.31;83.37
31195;BME280;17819;36.316;-93.164;2022-07-01T05:50:23;114490.28;;;-146.31;83.87
31195;BME280;17819;36.316;-93.164;2022-07-01T05:52:27;114490.28;;;-146.31;83.75
31195;BME280;17819;36.316;-93.164;2022-07-01T05:54:32;114490.28;;;-146.31;84.27
31195;BME280;17819;36.316;-93.164;2022-07-01T05:56:36;114490.28;;;-146.31;83.84
31195;BME280;17819;36.316;-93.164;2022-07-01T05:58:40;114490.28;;;-146.31;84.96
31195;BME280;17819;36.316;-93.164;2022-07-01T06:00:44;114490.28;;;-146.31;85.60
31195;BME280;17819;36.316;-93.164;2022-07-01T06:02:48;114490.28;;;-146.31;86.44
31195;BME280;17819;36.316;-93.164;2022-07-01T06:04:52;114490.28;;;-146.31;86.92
31195;BME280;17819;36.316;-93.164;2022-07-01T06:06:56;114490.28;;;-146.31;87.24
31195;BME280;17819;36.316;-93.164;2022-07-01T06:09:01;114490.28;;;-146.31;88.23
31195;BME280;17819;36.316;-93.164;2022-07-01T06:11:05;114490.28;;;-146.31;88.56
31195;BME280;17819;36.316;-93.164;2022-07-01T06:13:09;114490.28;;;-146.31;89.79
31195;BME280;17819;36.316;-93.164;2022-07-01T06:15:14;114490.28;;;-146.31;89.66
31195;BME280;17819;36.316;-93.164;2022-07-01T06:17:18;114490.28;;;-146.31;90.08
31195;BME280;17819;36.316;-93.164;2022-07-01T06:19:22;114490.28;;;-146.31;90.83
31195;BME280;17819;36.316;-93.164;2022-07-01T06:21:27;114490.28;;;-146.31;90.60
31195;BME280;17819;36.316;-93.164;2022-07-01T06:23:31;114490.28;;;-146.31;90.03
31195;BME280;17819;36.316;-93.164;2022-07-01T06:25:35;114490.28;;;-146.31;90.82
31195;BME280;17819;36.316;-93.164;2022-07-01T06:27:40;114490.28;;;-146.31;91.40
31195;BME280;17819;36.316;-93.164;2022-07-01T06:29:44;114490.28;;;-146.31;91.31
31195;BME280;17819;36.316;-93.164;2022-07-01T06:31:48;114490.28;;;-146.31;91.56
31195;BME280;17819;36.316;-93.164;2022-07-01T06:33:52;114490.28;;;-146.31;91.65
31195;BME280;17819;36.316;-93.164;2022-07-01T06:35:57;114490.28;;;-146.31;91.46
31195;BME280;17819;36.316;-93.164;2022-07-01T06:38:03;114490.28;;;-146.31;91.60
31195;BME280;17819;36.316;-93.164;2022-07-01T06:40:08;114490.28;;;-146.31;91.93
31195;BME280;17819;36.316;-93.164;2022-07-01T06:42:14;114490.28;;;-146.31;92.02
31195;BME280;17819;36.316;-93.164;2022-07-01T06:44:18;114490.28;;;-146.31;91.60
31195;BME280;17819;36.316;-93.164;2022-07-01T06:46:22;114490.28;;;-146.31;92.19
31195;BME280;17819;36.316;-93.164;2022-07-01T06:48:27;114490.28;;;-146.31;92.19
31195;BME280;17819;36.316;-93.164;2022-07-01T06:50:31;114490.28;;;-146.31;92.77
31195;BME280;17819;36.316;-93.164;2022-07-01T06:52:35;114490.28;;;-146.31;93.01
31195;BME280;17819;36.316;-93.164;2022-07-01T06:54:41;114490.28;;;-146.31;93.33
31195;BME280;17819;36.316;-93.164;2022-07-01T06:56:45;114490.28;;;-146.31;93.40
31195;BME280;17819;36.316;-93.164;2022-07-01T06:58:49;114490.28;;;-146.31;93.96
31195;BME280;17819;36.316;-93.164;2022-07-01T07:00:54;114490.28;;;-146.31;94.31
31195;BME280;17819;36.316;-93.164;2022-07-01T07:02:57;114490.28;;;-146.31;94.87
31195;BME280;17819;36.316;-93.164;2022-07-01T07:05:01;114490.28;;;-146.31;96.19
31195;BME280;17819;36.316;-93.164;2022-07-01T07:07:06;114490.28;;;-146.31;96.64
31195;BME280;17819;36.316;-93.164;2022-07-01T07:09:09;114490.28;;;-146.31;97.53
31195;BME280;17819;36.316;-93.164;2022-07-01T07:11:13;114490.28;;;-146.31;97.66
31195;BME280;17819;36.316;-93.164;2022-07-01T07:13:18;114490.28;;;-146.31;98.30
31195;BME280;17819;36.316;-93.164;2022-07-01T07:15:22;114490.28;;;-146.31;98.84
31195;BME280;17819;36.316;-93.164;2022-07-01T07:17:26;114490.28;;;-146.31;98.84
31195;BME280;17819;36.316;-93.164;2022-07-01T07:19:30;114490.28;;;-146.31;99.94
31195;BME280;17819;36.316;-93.164;2022-07-01T07:21:34;114490.28;;;-146.31;100.00
31195;BME280;17819;36.316;-93.164;2022-07-01T07:23:37;114490.28;;;-146.31;100.00
31195;BME280;17819;36.316;-93.164;2022-07-01T07:25:41;114490.28;;;-146.31;100.00
31195;BME280;17819;36.316;-93.164;2022-07-01T07:27:45;114490.28;;;-146.31;100.00
31195;BME280;17819;36.316;-93.164;2022-07-01T07:29:49;114490.28;;;-146.31;100.00
31195;BME280;17819;36.316;-93.164;2022-07-01T07:31:53;114490.28;;;-146.31;100.00
31195;BME280;17819;36.316;-93.164;2022-07-01T07:33:57;114490.28;;;-146.31;99.95
31195;BME280;17819;36.316;-93.164;2022-07-01T07:36:00;114490.28;;;-146.31;99.86
31195;BME280;17819;36.316;-93.164;2022-07-01T07:38:04;114490.28;;;-146.31;99.66
31195;BME280;17819;36.316;-93.164;2022-07-01T07:40:10;114490.28;;;-146.31;99.09
31195;BME280;17819;36.316;-93.164;2022-07-01T07:42:15;114490.28;;;-146.31;98.25
31195;BME280;17819;36.316;-93.164;2022-07-01T07:44:19;114490.28;;;-146.31;98.24
31195;BME280;17819;36.316;-93.164;2022-07-01T07:46:24;114490.28;;;-146.31;97.81
31195;BME280;17819;36.316;-93.164;2022-07-01T07:48:28;114490.28;;;-146.31;97.70
31195;BME280;17819;36.316;-93.164;2022-07-01T07:50:32;114490.28;;;-146.31;96.98
31195;BME280;17819;36.316;-93.164;2022-07-01T07:52:36;114490.28;;;-146.31;97.64
31195;BME280;17819;36.316;-93.164;2022-07-01T07:54:40;114490.28;;;-146.31;97.33
31195;BME280;17819;36.316;-93.164;2022-07-01T07:56:44;114490.28;;;-146.31;97.20
31195;BME280;17819;36.316;-93.164;2022-07-01T07:58:48;114490.28;;;-146.31;97.05
31195;BME280;17819;36.316;-93.164;2022-07-01T08:00:51;114490.28;;;-146.31;97.00
31195;BME280;17819;36.316;-93.164;2022-07-01T08:02:55;114490.28;;;-146.31;96.65
31195;BME280;17819;36.316;-93.164;2022-07-01T08:04:59;114490.28;;;-146.31;96.66
31195;BME280;17819;36.316;-93.164;2022-07-01T08:07:03;114490.28;;;-146.31;96.55
31195;BME280;17819;36.316;-93.164;2022-07-01T08:09:07;114490.28;;;-146.31;96.87
31195;BME280;17819;36.316;-93.164;2022-07-01T08:11:11;114490.28;;;-146.31;96.74
31195;BME280;17819;36.316;-93.164;2022-07-01T08:13:17;114490.28;;;-146.31;96.57
31195;BME280;17819;36.316;-93.164;2022-07-01T08:15:24;114490.28;;;-146.31;96.59
31195;BME280;17819;36.316;-93.164;2022-07-01T08:17:27;114490.28;;;-146.31;96.78
31195;BME280;17819;36.316;-93.164;2022-07-01T08:19:31;114490.28;;;-146.31;96.60
31195;BME280;17819;36.316;-93.164;2022-07-01T08:21:35;114490.28;;;-146.31;96.63
31195;BME280;17819;36.316;-93.164;2022-07-01T08:23:39;114490.28;;;-146.31;96.70
31195;BME280;17819;36.316;-93.164;2022-07-01T08:25:43;114490.28;;;-146.31;96.87
31195;BME280;17819;36.316;-93.164;2022-07-01T08:27:46;114490.28;;;-146.31;96.83
31195;BME280;17819;36.316;-93.164;2022-07-01T08:29:50;114490.28;;;-146.31;97.32
31195;BME280;17819;36.316;-93.164;2022-07-01T08:31:54;114490.28;;;-146.31;97.25
31195;BME280;17819;36.316;-93.164;2022-07-01T08:33:58;114490.28;;;-146.31;96.72
31195;BME280;17819;36.316;-93.164;2022-07-01T08:36:02;114490.28;;;-146.31;97.49
31195;BME280;17819;36.316;-93.164;2022-07-01T08:38:06;114490.28;;;-146.31;98.01
31195;BME280;17819;36.316;-93.164;2022-07-01T08:40:10;114490.28;;;-146.31;97.83
31195;BME280;17819;36.316;-93.164;2022-07-01T08:42:14;114490.28;;;-146.31;97.94
31195;BME280;17819;36.316;-93.164;2022-07-01T08:44:18;114490.28;;;-146.31;97.91
31195;BME280;17819;36.316;-93.164;2022-07-01T08:46:27;114490.28;;;-146.31;98.22
31195;BME280;17819;36.316;-93.164;2022-07-01T08:48:31;114490.28;;;-146.31;98.49
31195;BME280;17819;36.316;-93.164;2022-07-01T08:50:39;114490.28;;;-146.31;98.91
31195;BME280;17819;36.316;-93.164;2022-07-01T08:52:46;114490.28;;;-146.31;98.53
31195;BME280;17819;36.316;-93.164;2022-07-01T08:54:50;114490.28;;;-146.31;98.51
31195;BME280;17819;36.316;-93.164;2022-07-01T08:56:53;114490.28;;;-146.31;98.37
31195;BME280;17819;36.316;-93.164;2022-07-01T08:58:57;114490.28;;;-146.31;98.46
31195;BME280;17819;36.316;-93.164;2022-07-01T09:01:14;114490.28;;;-146.31;98.31
31195;BME280;17819;36.316;-93.164;2022-07-01T09:03:22;114490.28;;;-146.31;98.94
31195;BME280;17819;36.316;-93.164;2022-07-01T09:05:27;114490.28;;;-146.31;99.64
31195;BME280;17819;36.316;-93.164;2022-07-01T09:07:31;114490.28;;;-146.31;99.10
31195;BME280;17819;36.316;-93.164;2022-07-01T09:09:44;114490.28;;;-146.31;99.02
31195;BME280;17819;36.316;-93.164;2022-07-01T09:11:49;114490.28;;;-146.31;98.46
31195;BME280;17819;36.316;-93.164;2022-07-01T09:14:05;114490.28;;;-146.31;98.38
31195;BME280;17819;36.316;-93.164;2022-07-01T09:16:15;114490.28;;;-146.31;98.72
31195;BME280;17819;36.316;-93.164;2022-07-01T09:18:19;114490.28;;;-146.31;98.66
31195;BME280;17819;36.316;-93.164;2022-07-01T09:20:30;114490.28;;;-146.31;98.46
31195;BME280;17819;36.316;-93.164;2022-07-01T09:22:34;114490.28;;;-146.31;98.77
31195;BME280;17819;36.316;-93.164;2022-07-01T09:24:41;114490.28;;;-146.31;98.33
31195;BME280;17819;36.316;-93.164;2022-07-01T09:26:56;114490.28;;;-146.31;98.88
31195;BME280;17819;36.316;-93.164;2022-07-01T09:29:00;114490.28;;;-146.31;99.16
31195;BME280;17819;36.316;-93.164;2022-07-01T09:31:04;114490.28;;;-146.31;99.69
31195;BME280;17819;36.316;-93.164;2022-07-01T09:33:09;114490.28;;;-146.31;99.84
31195;BME280;17819;36.316;-93.164;2022-07-01T09:35:15;114490.28;;;-146.31;100.00
31195;BME280;17819;36.316;-93.164;2022-07-01T09:37:25;114490.28;;;-146.31;100.00
31195;BME280;17819;36.316;-93.164;2022-07-01T09:39:30;114490.28;;;-146.31;100.00
31195;BME280;17819;36.316;-93.164;2022-07-01T09:41:42;114490.28;;;-146.31;100.00
31195;BME280;17819;36.316;-93.164;2022-07-01T09:43:46;114490.28;;;-146.31;100.00
31195;BME280;17819;36.316;-93.164;2022-07-01T09:45:51;114490.28;;;-146.31;100.00
31195;BME280;17819;36.316;-93.164;2022-07-01T09:47:55;114490.28;;;-146.31;100.00
31195;BME280;17819;36.316;-93.164;2022-07-01T09:50:02;114490.28;;;-146.31;100.00
31195;BME280;17819;36.316;-93.164;2022-07-01T09:52:07;114490.28;;;-146.31;100.00
31195;BME280;17819;36.316;-93.164;2022-07-01T09:54:13;114490.28;;;-146.31;100.00
31195;BME280;17819;36.316;-93.164;2022-07-01T09:56:18;114490.28;;;-146.31;100.00
31195;BME280;17819;36.316;-93.164;2022-07-01T09:58:22;114490.28;;;-146.31;100.00
31195;BME280;17819;36.316;-93.164;2022-07-01T10:00:27;114490.28;;;-146.31;100.00
31195;BME280;17819;36.316;-93.164;2022-07-01T10:02:35;114490.28;;;-146.31;100.00
31195;BME280;17819;36.316;-93.164;2022-07-01T10:04:49;114490.28;;;-146.31;100.00
31195;BME280;17819;36.316;-93.164;2022-07-01T10:09:11;114490.28;;;-146.31;100.00
31195;BME280;17819;36.316;-93.164;2022-07-01T10:13:30;114490.28;;;-146.31;100.00
31195;BME280;17819;36.316;-93.164;2022-07-01T10:15:35;114490.28;;;-146.31;100.00
31195;BME280;17819;36.316;-93.164;2022-07-01T10:17:43;114490.28;;;-146.31;100.00
31195;BME280;17819;36.316;-93.164;2022-07-01T10:19:53;114490.28;;;-146.31;100.00
31195;BME280;17819;36.316;-93.164;2022-07-01T10:22:01;114490.28;;;-146.31;100.00
31195;BME280;17819;36.316;-93.164;2022-07-01T10:24:24;114490.28;;;-146.31;100.00
31195;BME280;17819;36.316;-93.164;2022-07-01T10:26:28;114490.28;;;-146.31;100.00